This is the latest recevied weather packets stored in our database for station/object OE3XAM-13. If no packets are shown the sender has not sent any weather packets the latest 10 day(s).
| Time | Temp. | Humidity | Pressure | Rain* | Wind** | Luminosity | Snow |
|---|---|---|---|---|---|---|---|
| 1777729288 | 26.67° C | 18% | 985 hPa | 0 mm | - | - | - |
| 1777727488 | 26.11° C | 18% | 986 hPa | 0 mm | - | - | - |
| 1777725691 | 26.11° C | 17% | 986 hPa | 0 mm | - | - | - |
| 1777723888 | 24.44° C | 19% | 986 hPa | 0 mm | - | - | - |
| 1777722088 | 25° C | 22% | 987 hPa | 0 mm | - | - | - |
| 1777720288 | 23.89° C | 25% | 987 hPa | 0 mm | - | - | - |
| 1777718488 | 23.33° C | 26% | 987 hPa | 0 mm | - | - | - |
| 1777716688 | 22.78° C | 27% | 988 hPa | 0 mm | - | - | - |
| 1777714888 | 21.67° C | 27% | 988 hPa | 0 mm | - | - | - |
| 1777713088 | 21.11° C | 33% | 988 hPa | 0 mm | - | - | - |
| 1777711288 | 18.89° C | 37% | 989 hPa | 0 mm | - | - | - |
| 1777709488 | 16.67° C | 44% | 989 hPa | 0 mm | - | - | - |
| 1777707688 | 15° C | 50% | 989 hPa | 0 mm | - | - | - |
| 1777705888 | 12.22° C | 57% | 990 hPa | 0 mm | - | - | - |
| 1777704088 | 10.56° C | 66% | 989 hPa | 0 mm | - | - | - |
| 1777702288 | 7.78° C | 75% | 989 hPa | 0 mm | - | - | - |
| 1777700488 | 6.11° C | 82% | 989 hPa | 0 mm | - | - | - |
| 1777698688 | 4.44° C | 83% | 989 hPa | 0 mm | - | - | - |
| 1777696888 | 3.89° C | 83% | 989 hPa | 0 mm | - | - | - |
| 1777695088 | 3.33° C | 83% | 989 hPa | 0 mm | - | - | - |
| 1777693288 | 3.89° C | 82% | 989 hPa | 0 mm | - | - | - |
| 1777691488 | 3.89° C | 81% | 990 hPa | 0 mm | - | - | - |
| 1777689688 | 4.44° C | 81% | 990 hPa | 0 mm | - | - | - |
| 1777687888 | 4.44° C | 81% | 990 hPa | 0 mm | - | - | - |
| 1777686088 | 5° C | 80% | 990 hPa | 0 mm | - | - | - |
* Rain latest hour (hover to see other rain measurements)
** Current wind speed in m/s (hover to see current wind gust speed)